Flight Track Log - Related Links

Times and Time Zones

All times are in EDT time to prevent confusion due to time zone crossing. See the EIA4249 flight status page for this flight to view local times or setup timezone preferences in your user account.

Time Position Orientation Groundspeed Altitude Reporting Facility
EDT Latitude Longitude Course Direction KTS MPH feet Rate Location/Type
Mon 12:00:38 PM 46.4122 -111.0950 288° West 429 494 40,000  Level Salt Lake Center
Mon 12:01:38 PM 46.4508 -111.2670 289° West 429 494 40,000  Level Salt Lake Center
Mon 12:02:38 PM 46.4894 -111.4330 287° West 424 488 40,000  Level Salt Lake Center
Mon 12:03:38 PM 46.5239 -111.5960 289° West 424 488 40,000  Level Salt Lake Center
Mon 12:04:38 PM 46.5619 -111.7590 288° West 424 488 40,000  Level Salt Lake Center
Mon 12:05:38 PM 46.5978 -111.9230 290° West 424 488 40,000  Level Salt Lake Center
Mon 12:06:38 PM 46.6375 -112.0840 289° West 424 488 40,000  Level Salt Lake Center
Mon 12:07:38 PM 46.6753 -112.2420 290° West 424 488 40,000  Level Salt Lake Center
Mon 12:08:38 PM 46.7144 -112.4000 290° West 424 488 40,000  Level Salt Lake Center
Mon 12:09:38 PM 46.7536 -112.5610 290° West 424 488 40,000  Level Salt Lake Center
Mon 12:10:38 PM 46.7928 -112.7200 289° West 424 488 40,000  Level Salt Lake Center
Mon 12:11:38 PM 46.8314 -112.8820 291° West 424 488 40,000  Level Salt Lake Center
Mon 12:12:38 PM 46.8683 -113.0230 289° West 418 481 40,000  Level Salt Lake Center
Mon 12:13:38 PM 46.9067 -113.1850 289° West 418 481 40,000  Level Salt Lake Center
Mon 12:14:38 PM 46.9447 -113.3450 289° West 418 481 40,000  Level Salt Lake Center
Mon 12:15:38 PM 46.9825 -113.5040 289° West 418 481 40,000  Level Salt Lake Center
Mon 12:16:38 PM 47.0222 -113.6710 288° West 423 487 40,000  Level Salt Lake Center
Mon 12:17:38 PM 47.0594 -113.8370 288° West 428 493 40,000  Level Salt Lake Center
Mon 12:18:38 PM 47.0967 -114.0040 289° West 428 493 40,000  Level Salt Lake Center
Mon 12:19:38 PM 47.1356 -114.1730 288° West 428 493 40,000  Level Salt Lake Center
Mon 12:20:38 PM 47.1719 -114.3400 287° West 428 493 40,000  Level Salt Lake Center
Mon 12:21:38 PM 47.2083 -114.5110 288° West 428 493 40,000  Level Salt Lake Center
Mon 12:23:10 PM 47.2692 -114.7900 289° West 422 486 40,000  Level Seattle Center
Mon 12:24:10 PM 47.3097 -114.9630 287° West 428 493 40,000  Level Seattle Center
Mon 12:25:10 PM 47.3456 -115.1320 288° West 436 502 40,000  Level Seattle Center
Mon 12:26:10 PM 47.3836 -115.3060 288° West 441 507 40,000  Level Seattle Center
Mon 12:27:10 PM 47.4214 -115.4810 286° West 446 513 40,000  Level Seattle Center
Mon 12:28:10 PM 47.4547 -115.6560 276° West 451 519 40,000  Level Seattle Center
Mon 12:29:10 PM 47.4667 -115.8180 274° West 444 511 40,000  Level Seattle Center
Mon 12:30:10 PM 47.4747 -115.9990 276° West 444 511 40,000  Level Seattle Center
Mon 12:31:10 PM 47.4867 -116.1820 292° West 444 511 40,000  Level Seattle Center
Mon 12:32:10 PM 47.5333 -116.3540 295° West 444 511 40,000  Level Seattle Center
Mon 12:33:10 PM 47.5861 -116.5260 294° West 444 511 40,000  Level Seattle Center
Mon 12:34:10 PM 47.6364 -116.6960 286° West 461 531 40,000  Level Seattle Center
Mon 12:35:10 PM 47.6750 -116.8970 281° West 461 531 40,000  Level Seattle Center
Mon 12:36:10 PM 47.6978 -117.0770 280° West 461 531 40,000  Level Seattle Center
Mon 12:37:10 PM 47.7186 -117.2610 279° West 461 531 40,000  Level Seattle Center
Mon 12:38:10 PM 47.7392 -117.4520 278° West 466 536 40,000  Level Seattle Center
Mon 12:39:10 PM 47.7572 -117.6390 279° West 466 536 40,000  Level Seattle Center
Mon 12:40:10 PM 47.7772 -117.8260 279° West 466 536 40,000  Level Seattle Center
Mon 12:41:10 PM 47.7967 -118.0140 279° West 466 536 40,000  Level Seattle Center
Mon 12:42:10 PM 47.8161 -118.1990 278° West 466 536 40,000  Level Seattle Center
Mon 12:43:10 PM 47.8350 -118.3900 279° West 466 536 40,000  Level Seattle Center
Mon 12:44:10 PM 47.8539 -118.5770 278° West 466 536 40,000  Level Seattle Center
Mon 12:45:10 PM 47.8722 -118.7620 277° West 466 536 40,000  Level Seattle Center
Mon 12:46:10 PM 47.8883 -118.9510 278° West 466 536 40,000  Level Seattle Center
Mon 12:47:10 PM 47.9061 -119.1390 278° West 466 536 40,000  Level Seattle Center
Mon 12:48:10 PM 47.9236 -119.3280 277° West 466 536 40,000  Level Seattle Center
Mon 12:49:10 PM 47.9386 -119.5130 279° West 466 536 40,000  Level Seattle Center
Mon 12:50:10 PM 47.9578 -119.7020 277° West 466 536 40,000 -700 Level Seattle Center
Mon 12:51:10 PM 47.9722 -119.8910 277° West 466 536 38,600 -2,250 Descending Seattle Center
Mon 12:52:10 PM 47.9864 -120.0740 277° West 461 531 35,500 -3,400 Descending Seattle Center
Mon 12:53:10 PM 48.0025 -120.2600 277° West 461 531 31,800 -3,600 Descending Seattle Center
Mon 12:54:10 PM 48.0183 -120.4460 278° West 461 531 28,300 -3,250 Descending Seattle Center
Mon 12:55:10 PM 48.0339 -120.6230 276° West 454 522 25,300 -2,950 Descending Seattle Center
Mon 12:56:10 PM 48.0450 -120.7870 278° West 429 494 22,400 -2,850 Descending Seattle Center
Mon 12:57:10 PM 48.0600 -120.9550 276° West 417 480 19,600 -2,800 Descending Seattle Center
Mon 12:58:10 PM 48.0711 -121.1070 276° West 400 460 16,800 -2,600 Descending Seattle Center
Mon 12:59:10 PM 48.0817 -121.2600 277° West 381 438 14,400 -1,900 Descending Seattle Center
Mon 01:00:10 PM 48.0925 -121.3960 277° West 360 414 13,000 -650 Descending Seattle Center
Mon 01:01:10 PM 48.1014 -121.5060 276° West 330 380 13,100  Climbing Seattle Center
Mon 01:02:10 PM 48.1100 -121.6240 272° West 303 349 13,000 -50 Descending Seattle Center
Mon 01:03:10 PM 48.1122 -121.7420 268° West 291 335 13,000 -250 Level Seattle Center
Mon 01:04:10 PM 48.1100 -121.8600 273° West 291 335 12,500 -1,100 Descending Seattle Center
Mon 01:05:10 PM 48.1142 -121.9780 281° West 291 335 10,800 -1,750 Descending Seattle Center
Mon 01:06:10 PM 48.1289 -122.0870 280° West 286 329 9,000 -2,050 Descending Seattle Center
Mon 01:07:10 PM 48.1414 -122.1930 281° West 275 316 6,700 -2,100 Descending Seattle Center
Mon 01:08:10 PM 48.1539 -122.2900 307° West 264 304 4,800 -1,300 Descending Seattle Center
Mon 01:09:10 PM 48.1878 -122.3570 28° Northeast 191 220 4,100 -850 Descending Seattle Center
Mon 01:10:10 PM 48.2239 -122.3280 147° Southeast 122 140 3,100 -500 Descending Seattle Center
Mon 01:11:10 PM 48.1872 -122.2920 178° South 51 59 3,100 -50 Level Seattle Center
Mon 01:12:10 PM 48.1414 -122.2900 217° Southwest 100 115 3,000 -50 Descending Seattle Center
Mon 01:13:10 PM 48.1094 -122.3260 335° Northwest 136 157 3,000  Level Seattle Center
Mon 01:14:10 PM 48.1503 -122.3550 351° North 77 89 3,000  Level Seattle Center
Mon 01:15:10 PM 48.1981 -122.3670 20° North 114 131 3,000  Level Seattle Center
Mon 01:16:10 PM 48.2400 -122.3440 121° Southeast 145 167 3,000  Level Seattle Center
Mon 01:17:10 PM 48.2144 -122.2810 184° South 101 116 3,000  Level Seattle Center
Mon 01:18:10 PM 48.1622 -122.2870 183° South 110 127 3,000 50 Level Seattle Center
Mon 01:19:10 PM 48.1122 -122.2910 178° South 144 166 3,100 50 Climbing Seattle Center
Mon 01:20:10 PM 48.0686 -122.2890 178° South 171 197 3,100 -300 Level Seattle Center
Mon 01:21:10 PM 48.0269 -122.2870 182° South 178 205 2,500 -650 Descending Seattle Center
Mon 01:22:10 PM 47.9853 -122.2890 178° South 168 193 1,800 -700 Descending Seattle Center
Mon 01:23:10 PM 47.9458 -122.2870 178° South 155 178 1,100  Descending Seattle Center
Mon 01:24:10 PM 47.9083 -122.2850 189° South 150 173 1,800 909 Climbing Seattle Center
Mon 01:25:22 PM 47.8500 -122.2980 261° West 162 186 3,100 545 Climbing Seattle Center
Mon 01:26:22 PM 47.8419 -122.3780 315° West 152 175 3,000 -50 Descending Seattle Center
Mon 01:27:22 PM 47.8761 -122.4290 359° North 151 174 3,000  Level Seattle Center
Mon 01:28:22 PM 47.9303 -122.4310 358° North 135 155 3,000  Level Seattle Center
Mon 01:29:22 PM 47.9883 -122.4340 358° North 169 194 3,000  Level Seattle Center
Mon 01:30:22 PM 48.0425 -122.4370 North 185 213 3,000 50 Level Seattle Center
Mon 01:31:22 PM 48.1031 -122.4280 28° Northeast 198 228 3,100  Climbing Seattle Center
Mon 01:32:22 PM 48.1517 -122.3900 51° Northeast 192 221 3,000 -50 Descending Seattle Center
Mon 01:33:22 PM 48.1842 -122.3290 150° Southeast 178 205 3,000  Level Seattle Center
Mon 01:34:22 PM 48.1372 -122.2890 181° South 114 131 3,000  Level Seattle Center
Mon 01:35:22 PM 48.0853 -122.2900 178° South 123 142 3,000 -100 Level Seattle Center
Mon 01:36:22 PM 48.0394 -122.2880 181° South 150 173 2,800 -450 Descending Seattle Center
Mon 01:37:22 PM 48.0000 -122.2890 178° South 157 181 2,100 -700 Descending Seattle Center
Mon 01:38:22 PM 47.9606 -122.2870 179° South 157 181 1,400 -650 Descending Seattle Center
Mon 01:39:22 PM 47.9292 -122.2860 179° South 150 173 800 -600 Descending Seattle Center

Login

Don't have an account? Register now (free) for customized features, flight alerts, and more!